sensor_id;sensor_type;location;lat;lon;timestamp;P1;durP1;ratioP1;P2;durP2;ratioP2
38463;SDS011;24243;51.956;5.902;2023-04-28T00:01:46;1.33;;;0.68;;
38463;SDS011;24243;51.956;5.902;2023-04-28T00:04:11;1.27;;;0.65;;
38463;SDS011;24243;51.956;5.902;2023-04-28T00:06:37;0.98;;;0.60;;
38463;SDS011;24243;51.956;5.902;2023-04-28T00:09:05;1.42;;;0.75;;
38463;SDS011;24243;51.956;5.902;2023-04-28T00:11:34;1.58;;;0.80;;
38463;SDS011;24243;51.956;5.902;2023-04-28T00:14:00;1.00;;;0.70;;
38463;SDS011;24243;51.956;5.902;2023-04-28T00:16:26;0.80;;;0.60;;
38463;SDS011;24243;51.956;5.902;2023-04-28T00:18:51;0.90;;;0.70;;
38463;SDS011;24243;51.956;5.902;2023-04-28T00:21:17;1.98;;;0.73;;
38463;SDS011;24243;51.956;5.902;2023-04-28T00:23:43;1.80;;;0.95;;
38463;SDS011;24243;51.956;5.902;2023-04-28T00:26:08;1.15;;;0.82;;
38463;SDS011;24243;51.956;5.902;2023-04-28T00:28:36;0.98;;;0.65;;
38463;SDS011;24243;51.956;5.902;2023-04-28T00:31:08;1.75;;;0.80;;
38463;SDS011;24243;51.956;5.902;2023-04-28T00:33:35;1.40;;;0.70;;
38463;SDS011;24243;51.956;5.902;2023-04-28T00:36:01;0.82;;;0.55;;
38463;SDS011;24243;51.956;5.902;2023-04-28T00:38:27;1.00;;;0.60;;
38463;SDS011;24243;51.956;5.902;2023-04-28T00:40:53;0.82;;;0.70;;
38463;SDS011;24243;51.956;5.902;2023-04-28T00:43:18;1.02;;;0.70;;
38463;SDS011;24243;51.956;5.902;2023-04-28T00:45:44;1.95;;;0.77;;
38463;SDS011;24243;51.956;5.902;2023-04-28T00:48:10;1.45;;;0.68;;
38463;SDS011;24243;51.956;5.902;2023-04-28T00:50:36;2.05;;;0.70;;
38463;SDS011;24243;51.956;5.902;2023-04-28T00:53:02;1.13;;;0.80;;
38463;SDS011;24243;51.956;5.902;2023-04-28T00:55:30;1.00;;;0.60;;
38463;SDS011;24243;51.956;5.902;2023-04-28T00:57:57;1.35;;;0.80;;
38463;SDS011;24243;51.956;5.902;2023-04-28T01:00:23;1.80;;;0.65;;
38463;SDS011;24243;51.956;5.902;2023-04-28T01:02:52;0.80;;;0.57;;
38463;SDS011;24243;51.956;5.902;2023-04-28T01:05:19;1.20;;;0.85;;
38463;SDS011;24243;51.956;5.902;2023-04-28T01:07:45;0.80;;;0.60;;
38463;SDS011;24243;51.956;5.902;2023-04-28T01:10:10;1.25;;;0.68;;
38463;SDS011;24243;51.956;5.902;2023-04-28T01:12:36;1.45;;;0.80;;
38463;SDS011;24243;51.956;5.902;2023-04-28T01:15:02;1.85;;;0.60;;
38463;SDS011;24243;51.956;5.902;2023-04-28T01:17:28;1.58;;;0.73;;
38463;SDS011;24243;51.956;5.902;2023-04-28T01:19:54;1.35;;;0.80;;
38463;SDS011;24243;51.956;5.902;2023-04-28T01:22:19;1.70;;;0.85;;
38463;SDS011;24243;51.956;5.902;2023-04-28T01:24:45;0.90;;;0.50;;
38463;SDS011;24243;51.956;5.902;2023-04-28T01:27:11;0.85;;;0.80;;
38463;SDS011;24243;51.956;5.902;2023-04-28T01:29:36;0.82;;;0.55;;
38463;SDS011;24243;51.956;5.902;2023-04-28T01:32:02;0.68;;;0.55;;
38463;SDS011;24243;51.956;5.902;2023-04-28T01:34:28;1.30;;;0.80;;
38463;SDS011;24243;51.956;5.902;2023-04-28T01:36:54;0.85;;;0.45;;
38463;SDS011;24243;51.956;5.902;2023-04-28T01:39:20;1.67;;;0.77;;
38463;SDS011;24243;51.956;5.902;2023-04-28T01:41:46;0.90;;;0.60;;
38463;SDS011;24243;51.956;5.902;2023-04-28T01:44:11;1.20;;;0.70;;
38463;SDS011;24243;51.956;5.902;2023-04-28T01:46:37;0.93;;;0.60;;
38463;SDS011;24243;51.956;5.902;2023-04-28T01:49:03;1.10;;;0.70;;
38463;SDS011;24243;51.956;5.902;2023-04-28T01:51:29;0.82;;;0.55;;
38463;SDS011;24243;51.956;5.902;2023-04-28T01:53:56;1.65;;;0.77;;
38463;SDS011;24243;51.956;5.902;2023-04-28T01:56:22;0.90;;;0.60;;
38463;SDS011;24243;51.956;5.902;2023-04-28T01:58:48;1.15;;;0.65;;
38463;SDS011;24243;51.956;5.902;2023-04-28T02:01:13;0.80;;;0.60;;
38463;SDS011;24243;51.956;5.902;2023-04-28T02:03:39;1.05;;;0.57;;
38463;SDS011;24243;51.956;5.902;2023-04-28T02:06:05;1.98;;;0.70;;
38463;SDS011;24243;51.956;5.902;2023-04-28T02:08:31;1.50;;;0.73;;
38463;SDS011;24243;51.956;5.902;2023-04-28T02:10:56;1.02;;;0.70;;
38463;SDS011;24243;51.956;5.902;2023-04-28T02:13:22;1.60;;;0.80;;
38463;SDS011;24243;51.956;5.902;2023-04-28T02:15:48;1.30;;;0.77;;
38463;SDS011;24243;51.956;5.902;2023-04-28T02:18:14;1.25;;;0.60;;
38463;SDS011;24243;51.956;5.902;2023-04-28T02:20:40;1.45;;;0.70;;
38463;SDS011;24243;51.956;5.902;2023-04-28T02:23:06;0.68;;;0.50;;
38463;SDS011;24243;51.956;5.902;2023-04-28T02:25:31;1.75;;;0.50;;
38463;SDS011;24243;51.956;5.902;2023-04-28T02:27:57;0.85;;;0.60;;
38463;SDS011;24243;51.956;5.902;2023-04-28T02:30:23;1.77;;;0.85;;
38463;SDS011;24243;51.956;5.902;2023-04-28T02:32:49;1.77;;;0.75;;
38463;SDS011;24243;51.956;5.902;2023-04-28T02:35:14;1.08;;;0.50;;
38463;SDS011;24243;51.956;5.902;2023-04-28T02:37:40;0.90;;;0.60;;
38463;SDS011;24243;51.956;5.902;2023-04-28T02:40:06;0.82;;;0.63;;
38463;SDS011;24243;51.956;5.902;2023-04-28T02:42:32;1.70;;;0.65;;
38463;SDS011;24243;51.956;5.902;2023-04-28T02:44:58;2.05;;;0.60;;
38463;SDS011;24243;51.956;5.902;2023-04-28T02:47:23;0.88;;;0.60;;
38463;SDS011;24243;51.956;5.902;2023-04-28T02:49:49;1.10;;;0.60;;
38463;SDS011;24243;51.956;5.902;2023-04-28T02:52:15;1.48;;;0.68;;
38463;SDS011;24243;51.956;5.902;2023-04-28T02:54:40;1.15;;;0.70;;
38463;SDS011;24243;51.956;5.902;2023-04-28T02:57:06;0.88;;;0.60;;
38463;SDS011;24243;51.956;5.902;2023-04-28T02:59:32;0.75;;;0.60;;
38463;SDS011;24243;51.956;5.902;2023-04-28T03:01:58;1.10;;;0.50;;
38463;SDS011;24243;51.956;5.902;2023-04-28T03:04:23;0.90;;;0.50;;
38463;SDS011;24243;51.956;5.902;2023-04-28T03:06:49;1.25;;;0.70;;
38463;SDS011;24243;51.956;5.902;2023-04-28T03:09:15;0.88;;;0.57;;
38463;SDS011;24243;51.956;5.902;2023-04-28T03:11:40;1.27;;;0.70;;
38463;SDS011;24243;51.956;5.902;2023-04-28T03:14:06;0.75;;;0.55;;
38463;SDS011;24243;51.956;5.902;2023-04-28T03:16:32;1.50;;;0.70;;
38463;SDS011;24243;51.956;5.902;2023-04-28T03:18:58;0.82;;;0.70;;
38463;SDS011;24243;51.956;5.902;2023-04-28T03:21:24;0.93;;;0.55;;
38463;SDS011;24243;51.956;5.902;2023-04-28T03:26:18;2.28;;;0.70;;
38463;SDS011;24243;51.956;5.902;2023-04-28T03:28:44;1.02;;;0.80;;
38463;SDS011;24243;51.956;5.902;2023-04-28T03:31:10;0.70;;;0.60;;
38463;SDS011;24243;51.956;5.902;2023-04-28T03:33:36;0.98;;;0.77;;
38463;SDS011;24243;51.956;5.902;2023-04-28T03:36:02;1.08;;;0.60;;
38463;SDS011;24243;51.956;5.902;2023-04-28T03:38:27;0.63;;;0.40;;
38463;SDS011;24243;51.956;5.902;2023-04-28T03:40:53;1.95;;;0.80;;
38463;SDS011;24243;51.956;5.902;2023-04-28T03:43:19;1.45;;;0.80;;
38463;SDS011;24243;51.956;5.902;2023-04-28T03:45:45;0.95;;;0.70;;
38463;SDS011;24243;51.956;5.902;2023-04-28T03:48:10;1.42;;;0.75;;
38463;SDS011;24243;51.956;5.902;2023-04-28T03:50:36;1.02;;;0.60;;
38463;SDS011;24243;51.956;5.902;2023-04-28T03:53:03;1.88;;;0.70;;
38463;SDS011;24243;51.956;5.902;2023-04-28T03:55:29;0.95;;;0.60;;
38463;SDS011;24243;51.956;5.902;2023-04-28T03:57:55;2.28;;;0.90;;
38463;SDS011;24243;51.956;5.902;2023-04-28T04:00:20;1.38;;;0.65;;
38463;SDS011;24243;51.956;5.902;2023-04-28T04:02:46;1.33;;;0.63;;
38463;SDS011;24243;51.956;5.902;2023-04-28T04:05:12;0.88;;;0.60;;
38463;SDS011;24243;51.956;5.902;2023-04-28T04:07:37;1.20;;;0.70;;
38463;SDS011;24243;51.956;5.902;2023-04-28T04:10:03;0.82;;;0.50;;
38463;SDS011;24243;51.956;5.902;2023-04-28T04:12:29;1.30;;;0.65;;
38463;SDS011;24243;51.956;5.902;2023-04-28T04:14:55;1.25;;;0.70;;
38463;SDS011;24243;51.956;5.902;2023-04-28T04:17:21;1.13;;;0.60;;
38463;SDS011;24243;51.956;5.902;2023-04-28T04:19:46;0.85;;;0.60;;
38463;SDS011;24243;51.956;5.902;2023-04-28T04:22:12;1.50;;;0.60;;
38463;SDS011;24243;51.956;5.902;2023-04-28T04:24:38;0.90;;;0.63;;
38463;SDS011;24243;51.956;5.902;2023-04-28T04:27:03;1.63;;;0.75;;
38463;SDS011;24243;51.956;5.902;2023-04-28T04:29:29;1.60;;;0.80;;
38463;SDS011;24243;51.956;5.902;2023-04-28T04:31:55;1.77;;;0.82;;
38463;SDS011;24243;51.956;5.902;2023-04-28T04:34:21;1.10;;;0.60;;
38463;SDS011;24243;51.956;5.902;2023-04-28T04:36:47;1.75;;;0.70;;
38463;SDS011;24243;51.956;5.902;2023-04-28T04:39:12;1.27;;;0.70;;
38463;SDS011;24243;51.956;5.902;2023-04-28T04:41:38;1.13;;;0.70;;
38463;SDS011;24243;51.956;5.902;2023-04-28T04:44:04;1.00;;;0.60;;
38463;SDS011;24243;51.956;5.902;2023-04-28T04:46:30;1.42;;;0.70;;
38463;SDS011;24243;51.956;5.902;2023-04-28T04:48:56;1.88;;;0.77;;
38463;SDS011;24243;51.956;5.902;2023-04-28T04:51:21;1.40;;;0.70;;
38463;SDS011;24243;51.956;5.902;2023-04-28T04:53:47;0.77;;;0.50;;
38463;SDS011;24243;51.956;5.902;2023-04-28T04:56:13;2.25;;;0.80;;
38463;SDS011;24243;51.956;5.902;2023-04-28T04:58:38;1.27;;;0.82;;
38463;SDS011;24243;51.956;5.902;2023-04-28T05:01:06;1.40;;;0.80;;
38463;SDS011;24243;51.956;5.902;2023-04-28T05:03:33;1.20;;;0.60;;
38463;SDS011;24243;51.956;5.902;2023-04-28T05:05:58;1.38;;;0.60;;
38463;SDS011;24243;51.956;5.902;2023-04-28T05:08:25;0.90;;;0.70;;
38463;SDS011;24243;51.956;5.902;2023-04-28T05:10:51;1.23;;;0.63;;
38463;SDS011;24243;51.956;5.902;2023-04-28T05:13:16;1.20;;;0.60;;
38463;SDS011;24243;51.956;5.902;2023-04-28T05:15:42;0.75;;;0.63;;
38463;SDS011;24243;51.956;5.902;2023-04-28T05:18:08;1.25;;;0.65;;
38463;SDS011;24243;51.956;5.902;2023-04-28T05:20:35;2.35;;;0.80;;
38463;SDS011;24243;51.956;5.902;2023-04-28T05:23:01;1.33;;;0.77;;
38463;SDS011;24243;51.956;5.902;2023-04-28T05:25:27;0.88;;;0.73;;
38463;SDS011;24243;51.956;5.902;2023-04-28T05:27:53;2.00;;;0.80;;
38463;SDS011;24243;51.956;5.902;2023-04-28T05:30:21;1.88;;;0.90;;
38463;SDS011;24243;51.956;5.902;2023-04-28T05:32:46;1.35;;;0.75;;
38463;SDS011;24243;51.956;5.902;2023-04-28T05:35:12;0.77;;;0.65;;
38463;SDS011;24243;51.956;5.902;2023-04-28T05:37:39;1.13;;;0.73;;
38463;SDS011;24243;51.956;5.902;2023-04-28T05:40:07;3.63;;;0.90;;
38463;SDS011;24243;51.956;5.902;2023-04-28T05:42:33;2.15;;;1.20;;
38463;SDS011;24243;51.956;5.902;2023-04-28T05:44:59;1.45;;;0.80;;
38463;SDS011;24243;51.956;5.902;2023-04-28T05:47:25;1.45;;;0.90;;
38463;SDS011;24243;51.956;5.902;2023-04-28T05:49:51;2.28;;;0.75;;
38463;SDS011;24243;51.956;5.902;2023-04-28T05:52:16;1.90;;;0.80;;
38463;SDS011;24243;51.956;5.902;2023-04-28T05:54:42;1.80;;;0.95;;
38463;SDS011;24243;51.956;5.902;2023-04-28T05:57:08;2.15;;;1.23;;
38463;SDS011;24243;51.956;5.902;2023-04-28T05:59:33;1.48;;;0.95;;
38463;SDS011;24243;51.956;5.902;2023-04-28T06:01:59;1.75;;;0.90;;
38463;SDS011;24243;51.956;5.902;2023-04-28T06:04:25;1.48;;;0.90;;
38463;SDS011;24243;51.956;5.902;2023-04-28T06:06:51;1.65;;;1.20;;
38463;SDS011;24243;51.956;5.902;2023-04-28T06:09:16;1.88;;;1.13;;
38463;SDS011;24243;51.956;5.902;2023-04-28T06:11:42;1.42;;;1.05;;
38463;SDS011;24243;51.956;5.902;2023-04-28T06:14:08;1.50;;;1.10;;
38463;SDS011;24243;51.956;5.902;2023-04-28T06:16:33;2.72;;;1.67;;
38463;SDS011;24243;51.956;5.902;2023-04-28T06:18:59;2.42;;;1.30;;
38463;SDS011;24243;51.956;5.902;2023-04-28T06:21:25;2.88;;;1.23;;
38463;SDS011;24243;51.956;5.902;2023-04-28T06:23:52;1.88;;;1.10;;
38463;SDS011;24243;51.956;5.902;2023-04-28T06:26:18;1.70;;;1.05;;
38463;SDS011;24243;51.956;5.902;2023-04-28T06:28:44;2.03;;;1.13;;
38463;SDS011;24243;51.956;5.902;2023-04-28T06:31:10;1.65;;;1.15;;
38463;SDS011;24243;51.956;5.902;2023-04-28T06:33:36;1.40;;;0.80;;
38463;SDS011;24243;51.956;5.902;2023-04-28T06:36:02;2.15;;;1.05;;
38463;SDS011;24243;51.956;5.902;2023-04-28T06:38:28;3.00;;;1.33;;
38463;SDS011;24243;51.956;5.902;2023-04-28T06:40:54;3.30;;;1.30;;
38463;SDS011;24243;51.956;5.902;2023-04-28T06:43:20;2.13;;;1.20;;
38463;SDS011;24243;51.956;5.902;2023-04-28T06:45:46;3.70;;;1.20;;
38463;SDS011;24243;51.956;5.902;2023-04-28T06:48:12;2.47;;;1.13;;
38463;SDS011;24243;51.956;5.902;2023-04-28T06:50:38;2.03;;;1.13;;
38463;SDS011;24243;51.956;5.902;2023-04-28T06:53:03;2.33;;;1.10;;
38463;SDS011;24243;51.956;5.902;2023-04-28T06:55:29;2.42;;;1.55;;
38463;SDS011;24243;51.956;5.902;2023-04-28T06:57:55;1.65;;;1.20;;
38463;SDS011;24243;51.956;5.902;2023-04-28T07:00:21;1.90;;;1.30;;
38463;SDS011;24243;51.956;5.902;2023-04-28T07:02:47;2.72;;;1.45;;
38463;SDS011;24243;51.956;5.902;2023-04-28T07:05:12;2.33;;;1.30;;
38463;SDS011;24243;51.956;5.902;2023-04-28T07:07:38;3.67;;;1.80;;
38463;SDS011;24243;51.956;5.902;2023-04-28T07:10:04;2.58;;;1.42;;
38463;SDS011;24243;51.956;5.902;2023-04-28T07:12:31;1.95;;;1.52;;
38463;SDS011;24243;51.956;5.902;2023-04-28T07:14:56;2.22;;;1.40;;
38463;SDS011;24243;51.956;5.902;2023-04-28T07:17:22;2.25;;;1.60;;
38463;SDS011;24243;51.956;5.902;2023-04-28T07:19:48;3.80;;;1.65;;
38463;SDS011;24243;51.956;5.902;2023-04-28T07:22:15;2.65;;;1.52;;
38463;SDS011;24243;51.956;5.902;2023-04-28T07:24:41;2.20;;;1.20;;
38463;SDS011;24243;51.956;5.902;2023-04-28T07:27:07;4.75;;;1.67;;
38463;SDS011;24243;51.956;5.902;2023-04-28T07:29:33;3.45;;;1.70;;
38463;SDS011;24243;51.956;5.902;2023-04-28T07:32:02;3.25;;;1.77;;
38463;SDS011;24243;51.956;5.902;2023-04-28T07:34:29;2.08;;;1.40;;
38463;SDS011;24243;51.956;5.902;2023-04-28T07:36:56;3.85;;;1.60;;
38463;SDS011;24243;51.956;5.902;2023-04-28T07:39:22;3.85;;;1.83;;
38463;SDS011;24243;51.956;5.902;2023-04-28T07:41:48;2.80;;;1.75;;
38463;SDS011;24243;51.956;5.902;2023-04-28T07:44:13;2.97;;;1.85;;
38463;SDS011;24243;51.956;5.902;2023-04-28T07:46:39;2.60;;;2.00;;
38463;SDS011;24243;51.956;5.902;2023-04-28T07:49:05;3.75;;;1.85;;
38463;SDS011;24243;51.956;5.902;2023-04-28T07:51:32;3.13;;;1.90;;
38463;SDS011;24243;51.956;5.902;2023-04-28T07:53:58;3.88;;;2.35;;
38463;SDS011;24243;51.956;5.902;2023-04-28T07:56:23;3.08;;;1.70;;
38463;SDS011;24243;51.956;5.902;2023-04-28T07:58:50;4.68;;;2.40;;
38463;SDS011;24243;51.956;5.902;2023-04-28T08:01:16;2.38;;;1.48;;
38463;SDS011;24243;51.956;5.902;2023-04-28T08:03:42;3.13;;;1.90;;
38463;SDS011;24243;51.956;5.902;2023-04-28T08:06:08;2.85;;;1.98;;
38463;SDS011;24243;51.956;5.902;2023-04-28T08:08:33;2.60;;;1.73;;
38463;SDS011;24243;51.956;5.902;2023-04-28T08:11:00;2.90;;;1.90;;
38463;SDS011;24243;51.956;5.902;2023-04-28T08:13:26;2.65;;;1.90;;
38463;SDS011;24243;51.956;5.902;2023-04-28T08:15:53;4.70;;;2.00;;
38463;SDS011;24243;51.956;5.902;2023-04-28T08:18:20;3.80;;;2.60;;
38463;SDS011;24243;51.956;5.902;2023-04-28T08:20:46;3.08;;;1.98;;
38463;SDS011;24243;51.956;5.902;2023-04-28T08:23:12;2.38;;;2.03;;
38463;SDS011;24243;51.956;5.902;2023-04-28T08:25:38;2.92;;;2.28;;
38463;SDS011;24243;51.956;5.902;2023-04-28T08:28:03;3.63;;;2.10;;
38463;SDS011;24243;51.956;5.902;2023-04-28T08:30:30;3.38;;;1.90;;
38463;SDS011;24243;51.956;5.902;2023-04-28T08:32:56;4.28;;;1.75;;
38463;SDS011;24243;51.956;5.902;2023-04-28T08:35:22;2.65;;;1.52;;
38463;SDS011;24243;51.956;5.902;2023-04-28T08:37:47;4.20;;;1.77;;
38463;SDS011;24243;51.956;5.902;2023-04-28T08:40:13;2.90;;;1.58;;
38463;SDS011;24243;51.956;5.902;2023-04-28T08:42:39;4.60;;;2.17;;
38463;SDS011;24243;51.956;5.902;2023-04-28T08:45:06;2.60;;;1.70;;
38463;SDS011;24243;51.956;5.902;2023-04-28T08:47:37;2.55;;;1.67;;
38463;SDS011;24243;51.956;5.902;2023-04-28T08:50:08;3.47;;;1.92;;
38463;SDS011;24243;51.956;5.902;2023-04-28T08:52:36;3.58;;;2.33;;
38463;SDS011;24243;51.956;5.902;2023-04-28T08:55:09;3.00;;;1.73;;
38463;SDS011;24243;51.956;5.902;2023-04-28T08:57:37;2.92;;;1.58;;
38463;SDS011;24243;51.956;5.902;2023-04-28T09:00:07;2.80;;;1.60;;
38463;SDS011;24243;51.956;5.902;2023-04-28T09:02:33;3.67;;;1.75;;
38463;SDS011;24243;51.956;5.902;2023-04-28T09:05:02;4.38;;;1.63;;
38463;SDS011;24243;51.956;5.902;2023-04-28T09:07:28;3.88;;;1.80;;
38463;SDS011;24243;51.956;5.902;2023-04-28T09:12:53;3.40;;;2.08;;
38463;SDS011;24243;51.956;5.902;2023-04-28T09:15:33;2.55;;;1.90;;
38463;SDS011;24243;51.956;5.902;2023-04-28T09:18:03;3.80;;;1.73;;
38463;SDS011;24243;51.956;5.902;2023-04-28T09:20:31;2.75;;;1.75;;
38463;SDS011;24243;51.956;5.902;2023-04-28T09:23:11;4.07;;;2.20;;
38463;SDS011;24243;51.956;5.902;2023-04-28T09:25:57;2.65;;;1.77;;
38463;SDS011;24243;51.956;5.902;2023-04-28T09:28:31;3.20;;;1.98;;
38463;SDS011;24243;51.956;5.902;2023-04-28T09:30:58;2.65;;;1.73;;
38463;SDS011;24243;51.956;5.902;2023-04-28T09:33:24;3.53;;;1.83;;
38463;SDS011;24243;51.956;5.902;2023-04-28T09:35:50;3.22;;;1.60;;
38463;SDS011;24243;51.956;5.902;2023-04-28T09:38:17;3.72;;;1.75;;
38463;SDS011;24243;51.956;5.902;2023-04-28T09:43:33;3.17;;;1.50;;
38463;SDS011;24243;51.956;5.902;2023-04-28T09:46:00;2.35;;;1.40;;
38463;SDS011;24243;51.956;5.902;2023-04-28T09:48:27;2.35;;;1.42;;
38463;SDS011;24243;51.956;5.902;2023-04-28T09:50:58;2.42;;;1.50;;
38463;SDS011;24243;51.956;5.902;2023-04-28T09:53:25;2.78;;;1.45;;
38463;SDS011;24243;51.956;5.902;2023-04-28T09:55:52;3.03;;;1.70;;
38463;SDS011;24243;51.956;5.902;2023-04-28T09:58:20;1.90;;;1.20;;
38463;SDS011;24243;51.956;5.902;2023-04-28T10:00:51;2.05;;;1.35;;
38463;SDS011;24243;51.956;5.902;2023-04-28T10:03:20;2.40;;;1.33;;
38463;SDS011;24243;51.956;5.902;2023-04-28T10:05:47;3.30;;;1.83;;
38463;SDS011;24243;51.956;5.902;2023-04-28T10:08:15;2.05;;;1.40;;
38463;SDS011;24243;51.956;5.902;2023-04-28T10:10:42;1.92;;;1.23;;
38463;SDS011;24243;51.956;5.902;2023-04-28T10:13:08;2.33;;;1.50;;
38463;SDS011;24243;51.956;5.902;2023-04-28T10:15:34;2.75;;;1.35;;
38463;SDS011;24243;51.956;5.902;2023-04-28T10:18:01;2.17;;;1.38;;
38463;SDS011;24243;51.956;5.902;2023-04-28T10:20:29;3.13;;;1.50;;
38463;SDS011;24243;51.956;5.902;2023-04-28T10:23:58;3.25;;;1.70;;
38463;SDS011;24243;51.956;5.902;2023-04-28T10:26:11;2.05;;;1.30;;
38463;SDS011;24243;51.956;5.902;2023-04-28T10:28:45;3.30;;;1.60;;
38463;SDS011;24243;51.956;5.902;2023-04-28T10:31:16;2.45;;;1.40;;
38463;SDS011;24243;51.956;5.902;2023-04-28T10:33:45;2.45;;;1.30;;
38463;SDS011;24243;51.956;5.902;2023-04-28T10:36:45;2.65;;;1.40;;
38463;SDS011;24243;51.956;5.902;2023-04-28T10:39:19;3.05;;;1.83;;
38463;SDS011;24243;51.956;5.902;2023-04-28T10:41:45;1.80;;;1.40;;
38463;SDS011;24243;51.956;5.902;2023-04-28T10:47:00;4.95;;;2.10;;
38463;SDS011;24243;51.956;5.902;2023-04-28T11:00:39;2.78;;;1.23;;
38463;SDS011;24243;51.956;5.902;2023-04-28T11:03:05;2.00;;;1.33;;
38463;SDS011;24243;51.956;5.902;2023-04-28T11:05:31;2.75;;;1.40;;
38463;SDS011;24243;51.956;5.902;2023-04-28T11:11:10;2.33;;;1.40;;
38463;SDS011;24243;51.956;5.902;2023-04-28T11:13:44;3.08;;;1.20;;
38463;SDS011;24243;51.956;5.902;2023-04-28T11:16:13;2.85;;;1.42;;
38463;SDS011;24243;51.956;5.902;2023-04-28T11:18:48;2.88;;;1.48;;
38463;SDS011;24243;51.956;5.902;2023-04-28T11:21:17;2.70;;;1.63;;
38463;SDS011;24243;51.956;5.902;2023-04-28T11:23:43;4.28;;;1.67;;
38463;SDS011;24243;51.956;5.902;2023-04-28T11:26:10;2.13;;;1.60;;
38463;SDS011;24243;51.956;5.902;2023-04-28T11:28:36;2.30;;;1.20;;
38463;SDS011;24243;51.956;5.902;2023-04-28T11:31:15;2.67;;;1.20;;
38463;SDS011;24243;51.956;5.902;2023-04-28T11:33:53;2.63;;;1.20;;
38463;SDS011;24243;51.956;5.902;2023-04-28T11:36:28;2.97;;;1.45;;
38463;SDS011;24243;51.956;5.902;2023-04-28T11:38:59;2.55;;;1.42;;
38463;SDS011;24243;51.956;5.902;2023-04-28T11:41:29;1.45;;;0.98;;
38463;SDS011;24243;51.956;5.902;2023-04-28T11:43:56;2.55;;;1.17;;
38463;SDS011;24243;51.956;5.902;2023-04-28T11:46:22;1.45;;;1.00;;
38463;SDS011;24243;51.956;5.902;2023-04-28T11:48:59;3.35;;;1.17;;
38463;SDS011;24243;51.956;5.902;2023-04-28T11:51:33;1.40;;;1.15;;
38463;SDS011;24243;51.956;5.902;2023-04-28T11:54:02;2.00;;;1.10;;
38463;SDS011;24243;51.956;5.902;2023-04-28T11:56:41;2.20;;;1.05;;
38463;SDS011;24243;51.956;5.902;2023-04-28T11:59:07;3.70;;;1.52;;
38463;SDS011;24243;51.956;5.902;2023-04-28T12:04:32;2.63;;;1.20;;
38463;SDS011;24243;51.956;5.902;2023-04-28T12:07:06;2.88;;;1.42;;
38463;SDS011;24243;51.956;5.902;2023-04-28T12:09:41;2.10;;;1.20;;
38463;SDS011;24243;51.956;5.902;2023-04-28T12:12:07;2.00;;;1.27;;
38463;SDS011;24243;51.956;5.902;2023-04-28T12:19:50;4.85;;;1.40;;
38463;SDS011;24243;51.956;5.902;2023-04-28T12:22:16;1.25;;;0.85;;
38463;SDS011;24243;51.956;5.902;2023-04-28T12:24:42;1.55;;;1.15;;
38463;SDS011;24243;51.956;5.902;2023-04-28T12:27:12;1.38;;;0.90;;
38463;SDS011;24243;51.956;5.902;2023-04-28T12:29:48;2.10;;;1.20;;
38463;SDS011;24243;51.956;5.902;2023-04-28T12:32:15;1.83;;;0.98;;
38463;SDS011;24243;51.956;5.902;2023-04-28T12:34:41;2.65;;;1.08;;
38463;SDS011;24243;51.956;5.902;2023-04-28T12:37:09;2.50;;;1.20;;
38463;SDS011;24243;51.956;5.902;2023-04-28T12:39:37;2.47;;;1.40;;
38463;SDS011;24243;51.956;5.902;2023-04-28T12:42:04;5.50;;;1.37;;
38463;SDS011;24243;51.956;5.902;2023-04-28T12:44:37;1.63;;;1.02;;
38463;SDS011;24243;51.956;5.902;2023-04-28T12:47:06;1.98;;;1.30;;
38463;SDS011;24243;51.956;5.902;2023-04-28T12:49:33;1.77;;;1.00;;
38463;SDS011;24243;51.956;5.902;2023-04-28T12:52:00;1.40;;;1.15;;
38463;SDS011;24243;51.956;5.902;2023-04-28T12:54:25;1.90;;;1.20;;
38463;SDS011;24243;51.956;5.902;2023-04-28T12:56:51;2.00;;;1.42;;
38463;SDS011;24243;51.956;5.902;2023-04-28T12:59:18;2.03;;;0.90;;
38463;SDS011;24243;51.956;5.902;2023-04-28T13:01:45;1.98;;;1.10;;
38463;SDS011;24243;51.956;5.902;2023-04-28T13:04:11;1.73;;;0.95;;
38463;SDS011;24243;51.956;5.902;2023-04-28T13:06:37;2.05;;;1.10;;
38463;SDS011;24243;51.956;5.902;2023-04-28T13:11:31;1.73;;;1.13;;
38463;SDS011;24243;51.956;5.902;2023-04-28T13:13:57;1.42;;;0.90;;
38463;SDS011;24243;51.956;5.902;2023-04-28T13:16:23;1.15;;;1.00;;
38463;SDS011;24243;51.956;5.902;2023-04-28T13:18:57;2.20;;;1.17;;
38463;SDS011;24243;51.956;5.902;2023-04-28T13:21:23;1.98;;;0.95;;
38463;SDS011;24243;51.956;5.902;2023-04-28T13:23:51;2.33;;;1.10;;
38463;SDS011;24243;51.956;5.902;2023-04-28T13:26:18;2.00;;;0.93;;
38463;SDS011;24243;51.956;5.902;2023-04-28T13:28:47;1.60;;;1.02;;
38463;SDS011;24243;51.956;5.902;2023-04-28T13:31:13;2.30;;;1.00;;
38463;SDS011;24243;51.956;5.902;2023-04-28T13:33:39;1.60;;;0.93;;
38463;SDS011;24243;51.956;5.902;2023-04-28T13:36:05;1.73;;;0.90;;
38463;SDS011;24243;51.956;5.902;2023-04-28T13:38:32;1.48;;;0.90;;
38463;SDS011;24243;51.956;5.902;2023-04-28T13:40:58;1.92;;;1.08;;
38463;SDS011;24243;51.956;5.902;2023-04-28T13:43:25;1.33;;;0.90;;
38463;SDS011;24243;51.956;5.902;2023-04-28T13:45:51;1.75;;;0.90;;
38463;SDS011;24243;51.956;5.902;2023-04-28T13:48:17;1.17;;;0.77;;
38463;SDS011;24243;51.956;5.902;2023-04-28T13:50:43;0.77;;;0.60;;
38463;SDS011;24243;51.956;5.902;2023-04-28T13:53:08;2.08;;;0.98;;
38463;SDS011;24243;51.956;5.902;2023-04-28T13:55:35;1.15;;;0.80;;
38463;SDS011;24243;51.956;5.902;2023-04-28T13:58:01;1.50;;;0.80;;
38463;SDS011;24243;51.956;5.902;2023-04-28T14:00:29;1.73;;;0.90;;
38463;SDS011;24243;51.956;5.902;2023-04-28T14:02:56;1.25;;;0.80;;
38463;SDS011;24243;51.956;5.902;2023-04-28T14:05:23;1.38;;;0.82;;
38463;SDS011;24243;51.956;5.902;2023-04-28T14:07:49;1.13;;;0.80;;
38463;SDS011;24243;51.956;5.902;2023-04-28T14:10:15;1.85;;;0.90;;
38463;SDS011;24243;51.956;5.902;2023-04-28T14:12:41;1.10;;;0.77;;
38463;SDS011;24243;51.956;5.902;2023-04-28T14:15:07;2.33;;;0.85;;
38463;SDS011;24243;51.956;5.902;2023-04-28T14:17:33;1.52;;;0.60;;
38463;SDS011;24243;51.956;5.902;2023-04-28T14:19:59;1.45;;;0.90;;
38463;SDS011;24243;51.956;5.902;2023-04-28T14:22:26;1.33;;;0.90;;
38463;SDS011;24243;51.956;5.902;2023-04-28T14:24:52;1.10;;;0.73;;
38463;SDS011;24243;51.956;5.902;2023-04-28T14:27:17;1.38;;;0.70;;
38463;SDS011;24243;51.956;5.902;2023-04-28T14:29:44;1.10;;;0.90;;
38463;SDS011;24243;51.956;5.902;2023-04-28T14:32:12;1.42;;;0.57;;
38463;SDS011;24243;51.956;5.902;2023-04-28T14:34:40;1.38;;;0.80;;
38463;SDS011;24243;51.956;5.902;2023-04-28T14:37:06;2.15;;;0.57;;
38463;SDS011;24243;51.956;5.902;2023-04-28T14:39:32;1.17;;;0.85;;
38463;SDS011;24243;51.956;5.902;2023-04-28T14:41:58;0.93;;;0.70;;
38463;SDS011;24243;51.956;5.902;2023-04-28T14:44:24;1.35;;;0.90;;
38463;SDS011;24243;51.956;5.902;2023-04-28T14:46:50;1.73;;;0.80;;
38463;SDS011;24243;51.956;5.902;2023-04-28T14:49:17;1.00;;;0.80;;
38463;SDS011;24243;51.956;5.902;2023-04-28T14:51:43;1.02;;;0.73;;
38463;SDS011;24243;51.956;5.902;2023-04-28T14:54:10;1.23;;;0.70;;
38463;SDS011;24243;51.956;5.902;2023-04-28T14:56:36;1.67;;;0.70;;
38463;SDS011;24243;51.956;5.902;2023-04-28T14:59:01;2.60;;;0.98;;
38463;SDS011;24243;51.956;5.902;2023-04-28T15:01:27;1.02;;;0.65;;
38463;SDS011;24243;51.956;5.902;2023-04-28T15:03:53;2.75;;;0.95;;
38463;SDS011;24243;51.956;5.902;2023-04-28T15:06:19;1.35;;;0.60;;
38463;SDS011;24243;51.956;5.902;2023-04-28T15:08:45;3.95;;;0.82;;
38463;SDS011;24243;51.956;5.902;2023-04-28T15:11:10;1.55;;;0.80;;
38463;SDS011;24243;51.956;5.902;2023-04-28T15:13:36;3.17;;;0.70;;
38463;SDS011;24243;51.956;5.902;2023-04-28T15:16:02;1.52;;;0.80;;
38463;SDS011;24243;51.956;5.902;2023-04-28T15:18:28;0.90;;;0.80;;
38463;SDS011;24243;51.956;5.902;2023-04-28T15:20:53;0.95;;;0.60;;
38463;SDS011;24243;51.956;5.902;2023-04-28T15:23:19;1.02;;;0.47;;